Time;durP1;ratioP1;P1;durP2;ratioP2;P2;SDS_P1;SDS_P2;PMS_P1;PMS_P2;Temp;Humidity;BMP_temperature;BMP_pressure;BME280_temperature;BME280_humidity;BME280_pressure;Samples;Min_cycle;Max_cycle;Signal;HPM_P1;HPM_P2
2022/04/20 00:01:22;;;;;;;6.68;2.80;;;;;;;;;;5076223;28;20047;-62
2022/04/20 00:03:49;;;;;;;7.85;2.83;;;;;;;;;;5086356;28;20109;-64
2022/04/20 00:06:15;;;;;;;4.65;2.75;;;;;;;;;;5066863;28;20410;-64
2022/04/20 00:08:41;;;;;;;3.88;2.60;;;;;;;;;;5065562;28;20039;-64
2022/04/20 00:11:08;;;;;;;5.00;2.97;;;;;;;;;;5088155;28;20512;-64
2022/04/20 00:13:34;;;;;;;5.43;3.00;;;;;;;;;;5076571;28;20200;-63
2022/04/20 00:16:00;;;;;;;2.90;2.25;;;;;;;;;;5084451;28;20047;-63
2022/04/20 00:18:26;;;;;;;6.63;2.60;;;;;;;;;;5073854;28;20087;-64
2022/04/20 00:20:53;;;;;;;4.63;2.50;;;;;;;;;;5086427;28;20072;-65
2022/04/20 00:23:19;;;;;;;7.40;2.90;;;;;;;;;;5078701;28;20054;-64
2022/04/20 00:25:45;;;;;;;4.32;2.70;;;;;;;;;;5067482;28;20044;-62
2022/04/20 00:28:11;;;;;;;7.38;2.53;;;;;;;;;;5083687;28;20036;-63
2022/04/20 00:30:37;;;;;;;4.05;2.53;;;;;;;;;;5087080;28;20109;-63
2022/04/20 00:33:03;;;;;;;6.80;3.63;;;;;;;;;;5077318;28;20089;-62
2022/04/20 00:35:30;;;;;;;4.28;2.92;;;;;;;;;;5079241;28;20066;-64
2022/04/20 00:37:56;;;;;;;6.90;2.75;;;;;;;;;;5079529;28;20055;-65
2022/04/20 00:40:22;;;;;;;3.85;2.78;;;;;;;;;;5089069;28;20043;-62
2022/04/20 00:42:49;;;;;;;4.75;2.70;;;;;;;;;;5065527;28;20036;-63
2022/04/20 00:45:15;;;;;;;7.05;2.70;;;;;;;;;;5086591;28;20200;-63
2022/04/20 00:47:45;;;;;;;4.28;2.55;;;;;;;;;;5083721;28;20044;-63
2022/04/20 00:50:12;;;;;;;4.18;2.60;;;;;;;;;;5084005;28;20047;-63
2022/04/20 00:52:38;;;;;;;3.55;2.65;;;;;;;;;;5077470;28;20079;-63
2022/04/20 00:55:05;;;;;;;5.25;2.42;;;;;;;;;;5085738;28;20044;-63
2022/04/20 00:57:32;;;;;;;4.72;2.60;;;;;;;;;;5061376;28;20043;-63
2022/04/20 01:00:01;;;;;;;5.40;3.15;;;;;;;;;;5077042;28;21019;-63
2022/04/20 01:02:27;;;;;;;4.28;2.90;;;;;;;;;;5074790;28;20063;-63
2022/04/20 01:04:53;;;;;;;5.03;2.50;;;;;;;;;;5084874;28;20127;-63
2022/04/20 01:07:22;;;;;;;4.10;2.35;;;;;;;;;;5079719;28;20405;-63
2022/04/20 01:09:48;;;;;;;4.00;2.53;;;;;;;;;;5084752;28;20131;-63
2022/04/20 01:12:15;;;;;;;5.68;3.00;;;;;;;;;;5063910;28;20123;-63
2022/04/20 01:14:42;;;;;;;5.88;2.75;;;;;;;;;;5083666;28;20040;-63
2022/04/20 01:17:08;;;;;;;5.78;3.00;;;;;;;;;;5078573;28;20040;-63
2022/04/20 01:19:35;;;;;;;4.47;3.03;;;;;;;;;;5078834;28;20494;-63
2022/04/20 01:22:02;;;;;;;5.25;2.53;;;;;;;;;;5075044;28;20040;-63
2022/04/20 01:24:29;;;;;;;7.68;3.60;;;;;;;;;;5078252;28;20512;-63
2022/04/20 01:26:56;;;;;;;4.97;2.85;;;;;;;;;;5078880;28;20032;-63
2022/04/20 01:29:22;;;;;;;4.93;2.95;;;;;;;;;;5084632;28;20047;-63
2022/04/20 01:31:49;;;;;;;4.20;3.00;;;;;;;;;;5084492;28;20043;-63
2022/04/20 01:34:15;;;;;;;9.65;3.35;;;;;;;;;;5079854;28;20076;-63
2022/04/20 01:36:41;;;;;;;3.85;2.72;;;;;;;;;;5087253;28;20489;-63
2022/04/20 01:39:07;;;;;;;4.63;3.08;;;;;;;;;;5068453;28;20536;-63
2022/04/20 01:41:33;;;;;;;4.28;2.92;;;;;;;;;;5083858;28;20070;-63
2022/04/20 01:43:59;;;;;;;4.90;3.17;;;;;;;;;;5083188;28;20044;-63
2022/04/20 01:46:25;;;;;;;4.40;3.05;;;;;;;;;;5054354;28;20033;-63
2022/04/20 01:48:52;;;;;;;13.77;4.05;;;;;;;;;;5075289;28;20609;-63
2022/04/20 01:54:03;;;;;;;8.10;3.17;;;;;;;;;;5074698;28;20106;-63
2022/04/20 01:56:29;;;;;;;7.05;3.75;;;;;;;;;;5087403;28;20223;-63
2022/04/20 01:58:55;;;;;;;5.28;3.00;;;;;;;;;;5071515;28;20063;-63
2022/04/20 02:04:06;;;;;;;6.82;3.58;;;;;;;;;;5090053;28;20465;-63
2022/04/20 02:06:32;;;;;;;4.55;2.97;;;;;;;;;;5079549;28;20040;-63
2022/04/20 02:08:58;;;;;;;4.05;2.78;;;;;;;;;;5061032;28;20040;-62
2022/04/20 02:11:25;;;;;;;8.63;4.05;;;;;;;;;;5094349;28;20070;-62
2022/04/20 02:13:51;;;;;;;5.78;3.65;;;;;;;;;;5081884;28;20029;-63
2022/04/20 02:16:17;;;;;;;6.13;3.70;;;;;;;;;;5060857;28;20079;-63
2022/04/20 02:18:43;;;;;;;7.90;3.08;;;;;;;;;;5078661;28;20163;-63
2022/04/20 02:21:09;;;;;;;7.13;3.35;;;;;;;;;;5091114;28;20044;-63
2022/04/20 02:23:35;;;;;;;5.90;3.50;;;;;;;;;;5063667;28;20649;-63
2022/04/20 02:26:02;;;;;;;5.30;3.53;;;;;;;;;;5084731;28;20031;-63
2022/04/20 02:28:28;;;;;;;5.78;3.42;;;;;;;;;;5089216;28;20068;-63
2022/04/20 02:30:54;;;;;;;5.28;3.95;;;;;;;;;;5088203;28;20046;-63
2022/04/20 02:33:20;;;;;;;7.25;3.17;;;;;;;;;;5062470;28;20095;-63
2022/04/20 02:35:47;;;;;;;5.47;3.10;;;;;;;;;;5089800;28;20036;-62
2022/04/20 02:38:14;;;;;;;7.07;3.67;;;;;;;;;;5071581;28;20028;-63
2022/04/20 02:40:41;;;;;;;6.75;3.35;;;;;;;;;;5093839;28;20586;-62
2022/04/20 02:43:07;;;;;;;4.70;3.22;;;;;;;;;;5071934;28;20126;-63
2022/04/20 02:45:33;;;;;;;6.28;3.47;;;;;;;;;;5082274;28;20125;-62
2022/04/20 02:48:00;;;;;;;5.22;3.70;;;;;;;;;;5078147;28;20056;-63
2022/04/20 02:50:28;;;;;;;5.70;3.22;;;;;;;;;;5091001;28;20043;-63
2022/04/20 02:52:54;;;;;;;4.70;3.47;;;;;;;;;;5086134;28;20047;-62
2022/04/20 02:55:20;;;;;;;4.55;3.17;;;;;;;;;;5090501;28;20051;-62
2022/04/20 02:57:46;;;;;;;7.05;3.95;;;;;;;;;;5086116;28;20736;-63
2022/04/20 03:00:13;;;;;;;5.25;3.67;;;;;;;;;;5085217;28;20041;-62
2022/04/20 03:02:39;;;;;;;4.78;3.17;;;;;;;;;;5071361;28;20048;-62
2022/04/20 03:05:05;;;;;;;6.53;3.15;;;;;;;;;;5093586;28;20044;-63
2022/04/20 03:07:31;;;;;;;7.13;3.72;;;;;;;;;;5083165;28;20058;-62
2022/04/20 03:09:58;;;;;;;5.57;3.50;;;;;;;;;;5082844;28;20036;-63
2022/04/20 03:12:24;;;;;;;6.50;3.67;;;;;;;;;;5078501;28;20542;-62
2022/04/20 03:14:54;;;;;;;7.57;4.18;;;;;;;;;;5068733;28;20032;-63
2022/04/20 03:17:21;;;;;;;4.63;3.70;;;;;;;;;;5065287;28;20512;-62
2022/04/20 03:19:47;;;;;;;7.20;4.28;;;;;;;;;;5087202;28;20040;-62
2022/04/20 03:22:14;;;;;;;5.65;3.35;;;;;;;;;;5084667;28;20032;-62
2022/04/20 03:24:40;;;;;;;9.07;3.47;;;;;;;;;;5080261;28;20461;-62
2022/04/20 03:27:06;;;;;;;6.82;4.05;;;;;;;;;;5073095;28;20640;-63
2022/04/20 03:29:32;;;;;;;6.13;3.35;;;;;;;;;;5090060;28;20044;-62
2022/04/20 03:31:58;;;;;;;5.30;3.53;;;;;;;;;;5089558;28;20036;-63
2022/04/20 03:34:24;;;;;;;5.22;3.55;;;;;;;;;;5078398;28;20028;-62
2022/04/20 03:36:51;;;;;;;6.90;3.83;;;;;;;;;;5090068;28;20036;-62
2022/04/20 03:39:17;;;;;;;7.35;3.22;;;;;;;;;;5057227;28;20045;-62
2022/04/20 03:41:43;;;;;;;7.28;3.50;;;;;;;;;;5089411;28;20050;-62
2022/04/20 03:44:09;;;;;;;6.15;4.03;;;;;;;;;;5084955;28;20097;-62
2022/04/20 03:46:35;;;;;;;5.45;3.58;;;;;;;;;;5085730;28;20044;-62
2022/04/20 03:49:02;;;;;;;5.88;4.10;;;;;;;;;;5082968;28;20481;-62
2022/04/20 03:51:28;;;;;;;9.15;5.82;;;;;;;;;;5084334;28;20067;-62
2022/04/20 03:53:54;;;;;;;9.43;3.92;;;;;;;;;;5089274;28;20482;-62
2022/04/20 03:56:20;;;;;;;6.00;3.90;;;;;;;;;;5085894;28;20044;-62
2022/04/20 03:58:46;;;;;;;5.70;3.67;;;;;;;;;;5082167;28;20040;-62
2022/04/20 04:01:12;;;;;;;5.28;3.83;;;;;;;;;;5073694;28;20040;-62
2022/04/20 04:03:39;;;;;;;7.15;4.57;;;;;;;;;;5084283;28;20127;-63
2022/04/20 04:06:06;;;;;;;5.82;3.90;;;;;;;;;;5090003;28;20036;-63
2022/04/20 04:08:32;;;;;;;5.82;3.38;;;;;;;;;;5079878;28;20075;-62
2022/04/20 04:10:58;;;;;;;6.22;4.03;;;;;;;;;;5085334;28;20123;-63
2022/04/20 04:13:24;;;;;;;7.65;3.55;;;;;;;;;;5081638;28;20398;-62
2022/04/20 04:15:52;;;;;;;5.45;3.65;;;;;;;;;;5060593;28;20117;-62
2022/04/20 04:18:20;;;;;;;6.72;4.15;;;;;;;;;;5089487;28;20454;-62
2022/04/20 04:20:46;;;;;;;8.55;4.03;;;;;;;;;;5089182;28;20080;-62
2022/04/20 04:23:12;;;;;;;5.78;3.95;;;;;;;;;;5067032;28;20039;-62
2022/04/20 04:25:38;;;;;;;4.93;3.53;;;;;;;;;;5082768;28;20390;-62
2022/04/20 04:28:05;;;;;;;6.50;3.92;;;;;;;;;;5085169;28;20214;-62
2022/04/20 04:30:32;;;;;;;6.25;3.72;;;;;;;;;;5080915;28;20040;-63
2022/04/20 04:32:58;;;;;;;6.32;4.50;;;;;;;;;;5084018;28;20690;-62
2022/04/20 04:35:24;;;;;;;7.03;3.83;;;;;;;;;;5084053;28;20051;-62
2022/04/20 04:37:50;;;;;;;7.22;4.25;;;;;;;;;;5087955;28;20258;-62
2022/04/20 04:40:18;;;;;;;6.40;3.47;;;;;;;;;;5078205;28;20051;-62
2022/04/20 04:42:45;;;;;;;5.38;3.80;;;;;;;;;;5082427;28;20945;-62
2022/04/20 04:50:41;;;;;;;6.18;3.45;;;;;;;;;;5078772;28;20041;-62
2022/04/20 04:53:07;;;;;;;6.03;3.58;;;;;;;;;;5058868;28;20488;-62
2022/04/20 04:55:33;;;;;;;7.18;3.47;;;;;;;;;;5083097;28;20075;-62
2022/04/20 04:57:59;;;;;;;7.20;3.67;;;;;;;;;;5067675;28;20548;-62
2022/04/20 05:00:25;;;;;;;7.75;3.95;;;;;;;;;;5085671;28;20048;-62
2022/04/20 05:02:51;;;;;;;6.68;3.90;;;;;;;;;;5086035;28;20054;-62
2022/04/20 05:05:17;;;;;;;5.40;3.97;;;;;;;;;;5087194;28;20118;-63
2022/04/20 05:07:44;;;;;;;5.95;3.88;;;;;;;;;;5088862;28;20043;-62
2022/04/20 05:10:10;;;;;;;6.00;3.63;;;;;;;;;;5087706;28;20028;-63
2022/04/20 05:12:36;;;;;;;6.03;3.65;;;;;;;;;;5069550;28;20374;-63
2022/04/20 05:15:02;;;;;;;8.38;4.05;;;;;;;;;;5083146;28;20491;-63
2022/04/20 05:17:28;;;;;;;6.03;4.45;;;;;;;;;;5058161;28;20548;-63
2022/04/20 05:19:54;;;;;;;7.00;4.28;;;;;;;;;;5082982;28;20067;-63
2022/04/20 05:22:21;;;;;;;7.78;3.78;;;;;;;;;;5086063;28;20032;-63
2022/04/20 05:24:47;;;;;;;8.75;4.05;;;;;;;;;;5086629;28;20523;-63
2022/04/20 05:27:13;;;;;;;6.85;3.90;;;;;;;;;;5085075;28;20032;-63
2022/04/20 05:29:39;;;;;;;6.53;4.00;;;;;;;;;;5082839;28;20130;-63
2022/04/20 05:32:06;;;;;;;6.63;4.55;;;;;;;;;;5085022;28;20768;-63
2022/04/20 05:34:33;;;;;;;5.32;3.67;;;;;;;;;;5066832;28;20481;-63
2022/04/20 05:42:29;;;;;;;6.10;3.70;;;;;;;;;;5082265;28;20040;-63
2022/04/20 05:44:55;;;;;;;5.63;3.88;;;;;;;;;;5086985;28;20058;-63
2022/04/20 05:47:21;;;;;;;7.13;4.38;;;;;;;;;;5076758;28;20040;-63
2022/04/20 05:49:47;;;;;;;9.38;4.57;;;;;;;;;;5068201;28;20169;-63
2022/04/20 05:52:14;;;;;;;5.90;3.63;;;;;;;;;;5085833;28;20037;-63
2022/04/20 05:54:40;;;;;;;6.38;4.60;;;;;;;;;;5074065;28;20063;-63
2022/04/20 05:57:06;;;;;;;6.10;3.83;;;;;;;;;;5077934;28;20044;-63
2022/04/20 05:59:32;;;;;;;6.70;4.65;;;;;;;;;;5087477;28;20036;-63
2022/04/20 06:01:58;;;;;;;6.88;4.00;;;;;;;;;;5066213;28;20363;-63
2022/04/20 06:04:25;;;;;;;7.82;4.05;;;;;;;;;;5080429;28;20494;-63
2022/04/20 06:06:51;;;;;;;6.63;4.32;;;;;;;;;;5075412;28;20063;-63
2022/04/20 06:09:18;;;;;;;4.57;3.05;;;;;;;;;;5077495;28;20044;-63
2022/04/20 06:11:45;;;;;;;8.38;3.90;;;;;;;;;;5089742;28;20119;-63
2022/04/20 06:14:11;;;;;;;5.88;3.65;;;;;;;;;;5085466;28;20047;-63
2022/04/20 06:16:37;;;;;;;5.85;4.43;;;;;;;;;;5076855;28;20032;-63
2022/04/20 06:19:03;;;;;;;5.55;3.95;;;;;;;;;;5083986;28;20040;-63
2022/04/20 06:21:29;;;;;;;5.82;3.53;;;;;;;;;;5062802;28;20046;-63
2022/04/20 06:23:56;;;;;;;6.75;4.30;;;;;;;;;;5060592;28;20040;-63
2022/04/20 06:26:22;;;;;;;7.38;4.47;;;;;;;;;;5087204;28;20046;-63
2022/04/20 06:28:48;;;;;;;7.40;4.20;;;;;;;;;;5082540;28;20506;-63
2022/04/20 06:31:15;;;;;;;7.28;4.38;;;;;;;;;;5075333;28;20037;-63
2022/04/20 06:33:41;;;;;;;6.25;3.85;;;;;;;;;;5079026;28;20083;-63
2022/04/20 06:36:07;;;;;;;7.28;4.00;;;;;;;;;;5081385;28;20067;-63
2022/04/20 06:38:33;;;;;;;5.55;3.65;;;;;;;;;;5080468;28;20436;-63
2022/04/20 06:40:59;;;;;;;6.32;3.40;;;;;;;;;;5082340;28;20142;-63
2022/04/20 06:43:26;;;;;;;5.60;3.70;;;;;;;;;;5080109;28;20101;-63
2022/04/20 06:45:52;;;;;;;6.10;4.20;;;;;;;;;;5085287;28;20431;-63
2022/04/20 06:48:18;;;;;;;6.50;4.65;;;;;;;;;;5077915;28;20044;-63
2022/04/20 06:50:45;;;;;;;9.85;4.72;;;;;;;;;;5080765;28;20497;-63
2022/04/20 06:58:41;;;;;;;7.85;4.13;;;;;;;;;;5085211;28;20077;-63
2022/04/20 07:01:08;;;;;;;7.60;3.90;;;;;;;;;;5081468;28;20048;-62
2022/04/20 07:03:35;;;;;;;5.18;3.53;;;;;;;;;;5055616;28;20048;-62
2022/04/20 07:06:01;;;;;;;5.40;3.55;;;;;;;;;;5075789;28;20053;-62
2022/04/20 07:08:28;;;;;;;6.50;3.75;;;;;;;;;;5074830;28;20474;-62
2022/04/20 07:10:54;;;;;;;7.50;3.58;;;;;;;;;;5079752;28;20040;-62
2022/04/20 07:13:20;;;;;;;5.53;3.80;;;;;;;;;;5081870;28;20371;-62
2022/04/20 07:15:47;;;;;;;7.57;4.00;;;;;;;;;;5086628;28;20497;-63
2022/04/20 07:18:13;;;;;;;7.22;3.97;;;;;;;;;;5058542;28;20119;-62
2022/04/20 07:20:40;;;;;;;7.65;3.25;;;;;;;;;;5072361;28;20105;-62
2022/04/20 07:23:06;;;;;;;7.57;3.42;;;;;;;;;;5080190;28;20048;-62
2022/04/20 07:25:32;;;;;;;5.72;3.67;;;;;;;;;;5086940;28;20311;-62
2022/04/20 07:27:59;;;;;;;5.65;3.50;;;;;;;;;;5077470;28;20182;-62
2022/04/20 07:30:28;;;;;;;4.35;3.92;;;;;;;;;;5082544;28;20048;-62
2022/04/20 07:32:54;;;;;;;6.15;3.67;;;;;;;;;;5078854;28;20047;-62
2022/04/20 07:35:21;;;;;;;6.68;3.75;;;;;;;;;;5084596;28;20051;-63
2022/04/20 07:37:47;;;;;;;4.93;3.38;;;;;;;;;;5064554;28;20043;-63
2022/04/20 07:40:14;;;;;;;6.28;3.72;;;;;;;;;;5088068;28;20047;-62
2022/04/20 07:42:40;;;;;;;8.35;3.85;;;;;;;;;;5079949;28;20047;-62
2022/04/20 07:45:07;;;;;;;5.00;3.75;;;;;;;;;;5075429;28;20040;-62
2022/04/20 07:47:33;;;;;;;4.93;3.03;;;;;;;;;;5080282;28;20482;-62
2022/04/20 07:52:45;;;;;;;5.55;3.60;;;;;;;;;;5087128;28;20090;-62
2022/04/20 07:55:15;;;;;;;6.68;3.58;;;;;;;;;;5089448;28;20064;-62
2022/04/20 07:57:43;;;;;;;4.63;2.85;;;;;;;;;;5069609;28;20079;-62
2022/04/20 08:00:09;;;;;;;5.53;3.22;;;;;;;;;;5088912;28;20044;-62
2022/04/20 08:02:36;;;;;;;8.20;3.55;;;;;;;;;;5089265;28;20035;-62
2022/04/20 08:05:02;;;;;;;5.60;3.13;;;;;;;;;;5085612;28;20048;-62
2022/04/20 08:07:28;;;;;;;4.82;3.42;;;;;;;;;;5090186;28;20137;-62
2022/04/20 08:09:54;;;;;;;4.63;3.30;;;;;;;;;;5064763;28;20035;-62
2022/04/20 08:12:21;;;;;;;6.10;3.20;;;;;;;;;;5087556;28;20303;-63
2022/04/20 08:14:47;;;;;;;6.65;3.22;;;;;;;;;;5089820;28;20496;-62
2022/04/20 08:17:13;;;;;;;4.85;3.20;;;;;;;;;;5081438;28;20044;-62
2022/04/20 08:19:39;;;;;;;8.55;3.70;;;;;;;;;;5087509;28;20072;-63
2022/04/20 08:22:05;;;;;;;7.00;3.55;;;;;;;;;;5085819;28;20511;-62
2022/04/20 08:24:31;;;;;;;6.57;3.00;;;;;;;;;;5089653;28;20071;-62
2022/04/20 08:26:58;;;;;;;8.10;3.35;;;;;;;;;;5082707;28;20338;-62
2022/04/20 08:29:24;;;;;;;6.90;3.75;;;;;;;;;;5088681;28;20071;-62
2022/04/20 08:31:50;;;;;;;4.88;3.53;;;;;;;;;;5085046;28;20040;-62
2022/04/20 08:34:16;;;;;;;5.03;2.97;;;;;;;;;;5087125;28;20047;-62
2022/04/20 08:36:42;;;;;;;5.88;3.53;;;;;;;;;;5086469;28;20535;-62
2022/04/20 08:39:08;;;;;;;4.63;2.70;;;;;;;;;;5064344;28;20074;-62
2022/04/20 08:41:35;;;;;;;7.40;3.25;;;;;;;;;;5086606;28;20119;-62
2022/04/20 08:44:01;;;;;;;5.50;3.20;;;;;;;;;;5085203;28;20039;-62
2022/04/20 08:46:30;;;;;;;3.70;2.55;;;;;;;;;;5065902;28;20036;-62
2022/04/20 08:48:56;;;;;;;5.20;3.22;;;;;;;;;;5092668;28;20063;-62
2022/04/20 08:51:23;;;;;;;4.82;3.33;;;;;;;;;;5085021;28;20044;-62
2022/04/20 08:53:49;;;;;;;5.07;3.63;;;;;;;;;;5084128;28;20092;-62
2022/04/20 08:59:01;;;;;;;4.35;2.58;;;;;;;;;;5086789;28;20076;-62
2022/04/20 09:01:28;;;;;;;6.40;2.95;;;;;;;;;;5082611;28;20083;-62
2022/04/20 09:03:54;;;;;;;8.02;2.65;;;;;;;;;;5068763;28;20036;-62
2022/04/20 09:06:20;;;;;;;5.75;2.47;;;;;;;;;;5076839;28;20394;-62
2022/04/20 09:08:47;;;;;;;5.20;2.75;;;;;;;;;;5082884;28;20040;-62
2022/04/20 09:11:13;;;;;;;7.57;2.88;;;;;;;;;;5039467;28;20036;-62
2022/04/20 09:13:41;;;;;;;4.80;3.10;;;;;;;;;;5073270;28;20037;-62
2022/04/20 09:16:12;;;;;;;4.43;2.70;;;;;;;;;;5061569;28;20048;-62
2022/04/20 09:18:39;;;;;;;5.95;2.83;;;;;;;;;;5083271;28;20097;-62
2022/04/20 09:21:09;;;;;;;4.82;2.60;;;;;;;;;;5079886;28;20531;-63
2022/04/20 09:23:35;;;;;;;3.92;3.03;;;;;;;;;;5086870;28;20036;-62
2022/04/20 09:26:12;;;;;;;6.15;3.03;;;;;;;;;;5076759;28;20047;-62
2022/04/20 09:28:39;;;;;;;4.25;2.75;;;;;;;;;;5073403;28;20513;-62
2022/04/20 09:31:07;;;;;;;3.60;2.58;;;;;;;;;;5073251;28;20685;-62
2022/04/20 09:33:54;;;;;;;4.70;2.60;;;;;;;;;;5084489;28;20040;-62
2022/04/20 09:36:39;;;;;;;3.38;2.08;;;;;;;;;;5082510;28;20076;-62
2022/04/20 09:39:05;;;;;;;3.50;2.35;;;;;;;;;;5088262;28;20043;-62
2022/04/20 09:41:31;;;;;;;3.40;2.10;;;;;;;;;;5086586;28;20039;-62
2022/04/20 09:44:09;;;;;;;5.97;2.00;;;;;;;;;;5070156;28;20044;-62
2022/04/20 09:49:34;;;;;;;2.58;1.67;;;;;;;;;;5074155;28;20134;-62
2022/04/20 09:52:08;;;;;;;2.00;1.40;;;;;;;;;;5076407;28;20058;-62
2022/04/20 09:54:36;;;;;;;5.50;2.17;;;;;;;;;;5086649;28;20071;-62
2022/04/20 09:57:10;;;;;;;2.83;1.83;;;;;;;;;;5084546;28;20052;-62
2022/04/20 09:59:36;;;;;;;1.83;1.30;;;;;;;;;;5084562;28;20322;-62
2022/04/20 10:02:10;;;;;;;2.03;1.38;;;;;;;;;;5084026;28;20040;-62
2022/04/20 10:04:38;;;;;;;4.38;1.90;;;;;;;;;;5080565;28;20048;-62
2022/04/20 10:07:05;;;;;;;2.65;1.50;;;;;;;;;;5084863;28;20497;-61
2022/04/20 10:09:31;;;;;;;4.50;1.80;;;;;;;;;;5089821;28;20127;-62
2022/04/20 10:11:57;;;;;;;4.32;2.17;;;;;;;;;;5063124;28;20072;-62
2022/04/20 10:17:10;;;;;;;3.15;1.67;;;;;;;;;;5089688;28;20051;-61
2022/04/20 10:19:39;;;;;;;4.30;1.60;;;;;;;;;;5071862;28;20390;-61
2022/04/20 10:22:05;;;;;;;2.30;1.40;;;;;;;;;;5088250;28;20517;-62
2022/04/20 10:24:38;;;;;;;2.35;1.20;;;;;;;;;;5087458;28;20051;-61
2022/04/20 10:27:07;;;;;;;5.15;1.83;;;;;;;;;;5090522;28;20123;-62
2022/04/20 10:29:41;;;;;;;3.60;1.27;;;;;;;;;;5086499;28;20055;-62
2022/04/20 10:32:12;;;;;;;2.95;1.20;;;;;;;;;;5087600;28;20115;-62
2022/04/20 10:34:39;;;;;;;3.30;1.27;;;;;;;;;;5088149;28;20039;-61
2022/04/20 10:37:07;;;;;;;4.50;1.25;;;;;;;;;;5088858;28;20079;-62
2022/04/20 10:39:41;;;;;;;1.52;1.20;;;;;;;;;;5089728;28;20489;-62
2022/04/20 10:42:19;;;;;;;1.92;1.35;;;;;;;;;;5089613;28;20093;-63
2022/04/20 10:44:51;;;;;;;3.00;1.77;;;;;;;;;;5068698;28;20036;-62
2022/04/20 10:47:24;;;;;;;1.67;1.17;;;;;;;;;;5088036;28;20089;-64
2022/04/20 10:49:51;;;;;;;2.17;1.17;;;;;;;;;;5089430;28;20357;-62
2022/04/20 10:52:24;;;;;;;2.80;1.73;;;;;;;;;;5090632;28;20039;-62
2022/04/20 10:54:51;;;;;;;4.88;1.30;;;;;;;;;;5088433;28;20626;-62
2022/04/20 10:57:18;;;;;;;2.70;1.20;;;;;;;;;;5089904;28;20040;-62
2022/04/20 11:00:04;;;;;;;2.72;1.27;;;;;;;;;;5089708;28;20513;-62
2022/04/20 11:02:30;;;;;;;1.55;1.13;;;;;;;;;;5086393;28;20042;-63
2022/04/20 11:05:12;;;;;;;2.00;1.27;;;;;;;;;;5083162;28;20075;-62
2022/04/20 11:07:58;;;;;;;2.97;1.45;;;;;;;;;;5087459;28;20208;-62
2022/04/20 11:10:24;;;;;;;3.30;1.30;;;;;;;;;;5089248;28;20048;-62
2022/04/20 11:18:42;;;;;;;3.08;1.67;;;;;;;;;;5088555;28;20118;-62
2022/04/20 11:21:11;;;;;;;2.35;1.38;;;;;;;;;;5088619;28;20036;-62
2022/04/20 11:23:55;;;;;;;2.17;1.10;;;;;;;;;;5089537;28;20505;-62
2022/04/20 11:26:33;;;;;;;2.72;1.33;;;;;;;;;;5087939;28;20036;-62
2022/04/20 11:29:01;;;;;;;4.97;1.55;;;;;;;;;;5074229;28;20052;-63
2022/04/20 11:31:36;;;;;;;1.48;1.00;;;;;;;;;;5088730;28;20143;-62
2022/04/20 11:34:03;;;;;;;3.10;1.65;;;;;;;;;;5087698;28;20070;-63
2022/04/20 11:36:29;;;;;;;2.53;1.45;;;;;;;;;;5088468;28;20035;-62
2022/04/20 11:38:55;;;;;;;4.95;1.40;;;;;;;;;;5054830;28;20044;-62
2022/04/20 11:41:22;;;;;;;3.03;1.20;;;;;;;;;;5087918;28;20482;-63
2022/04/20 11:43:49;;;;;;;2.47;1.20;;;;;;;;;;5086514;28;20034;-62
2022/04/20 11:46:16;;;;;;;3.38;1.50;;;;;;;;;;5089195;28;20040;-62
2022/04/20 11:48:53;;;;;;;1.92;1.35;;;;;;;;;;5068824;28;20048;-63
2022/04/20 11:51:21;;;;;;;1.50;1.10;;;;;;;;;;5086611;28;20032;-62
2022/04/20 11:53:48;;;;;;;3.35;1.73;;;;;;;;;;5088858;28;20051;-62
2022/04/20 11:56:15;;;;;;;4.25;2.05;;;;;;;;;;5085300;28;20208;-62
2022/04/20 11:58:41;;;;;;;4.15;1.67;;;;;;;;;;5082834;28;20040;-63
2022/04/20 12:01:08;;;;;;;2.35;1.38;;;;;;;;;;5085542;28;20433;-63
2022/04/20 12:03:42;;;;;;;1.80;1.58;;;;;;;;;;5076596;28;20046;-63
2022/04/20 12:06:11;;;;;;;1.92;1.33;;;;;;;;;;5085118;28;20082;-63
2022/04/20 12:08:42;;;;;;;2.13;1.45;;;;;;;;;;5074188;28;20044;-62
2022/04/20 12:11:10;;;;;;;2.97;1.50;;;;;;;;;;5088785;28;20055;-63
2022/04/20 12:13:36;;;;;;;2.70;1.25;;;;;;;;;;5065206;28;20044;-62
2022/04/20 12:16:10;;;;;;;2.22;1.40;;;;;;;;;;5086784;28;20046;-63
2022/04/20 12:18:37;;;;;;;4.47;1.15;;;;;;;;;;5073836;28;20047;-62
2022/04/20 12:21:07;;;;;;;2.55;1.20;;;;;;;;;;5081166;28;20052;-62
2022/04/20 12:23:37;;;;;;;1.70;1.08;;;;;;;;;;5078959;28;20173;-63
2022/04/20 12:26:04;;;;;;;2.53;1.15;;;;;;;;;;5065731;28;20043;-63
2022/04/20 12:28:41;;;;;;;2.03;1.33;;;;;;;;;;5083038;28;20091;-62
2022/04/20 12:31:09;;;;;;;2.00;1.40;;;;;;;;;;5064555;28;20185;-64
2022/04/20 12:33:37;;;;;;;1.73;1.27;;;;;;;;;;5082122;28;20566;-63
2022/04/20 12:36:08;;;;;;;1.70;1.08;;;;;;;;;;5083754;28;20390;-63
2022/04/20 12:38:44;;;;;;;2.85;1.48;;;;;;;;;;5083028;28;20583;-63
2022/04/20 12:41:29;;;;;;;2.00;1.38;;;;;;;;;;5063069;28;20055;-63
2022/04/20 12:43:55;;;;;;;2.47;1.38;;;;;;;;;;5081486;28;20047;-63
2022/04/20 12:46:21;;;;;;;2.17;1.38;;;;;;;;;;5077911;28;20521;-63
2022/04/20 12:48:48;;;;;;;4.78;1.42;;;;;;;;;;5086009;28;20042;-63
2022/04/20 12:51:23;;;;;;;4.97;2.78;;;;;;;;;;5084654;28;20073;-63
2022/04/20 12:53:50;;;;;;;4.13;2.90;;;;;;;;;;5068234;28;20044;-63
2022/04/20 13:02:01;;;;;;;7.93;3.25;;;;;;;;;;5077437;28;20085;-63
2022/04/20 13:04:28;;;;;;;3.90;2.53;;;;;;;;;;5074452;28;20056;-63
2022/04/20 13:06:55;;;;;;;4.10;2.47;;;;;;;;;;5077098;28;20111;-64
2022/04/20 13:09:22;;;;;;;4.35;2.20;;;;;;;;;;5081902;28;20040;-63
2022/04/20 13:11:48;;;;;;;5.32;2.97;;;;;;;;;;5084930;28;20043;-63
2022/04/20 13:14:14;;;;;;;5.70;3.10;;;;;;;;;;5082573;28;20044;-63
2022/04/20 13:16:40;;;;;;;5.03;2.97;;;;;;;;;;5082505;28;20043;-63
2022/04/20 13:19:06;;;;;;;6.28;2.80;;;;;;;;;;5082669;28;20116;-62
2022/04/20 13:21:33;;;;;;;4.30;3.25;;;;;;;;;;5082516;28;20052;-63
2022/04/20 13:23:59;;;;;;;5.38;2.92;;;;;;;;;;5065926;28;20054;-63
2022/04/20 13:29:12;;;;;;;11.27;3.40;;;;;;;;;;5084281;28;20330;-64
2022/04/20 13:31:38;;;;;;;5.13;3.20;;;;;;;;;;5083546;28;20044;-63
2022/04/20 13:34:04;;;;;;;4.22;2.80;;;;;;;;;;5063059;28;20044;-63
2022/04/20 13:36:30;;;;;;;5.80;3.08;;;;;;;;;;5083142;28;20044;-63
2022/04/20 13:38:57;;;;;;;9.90;3.08;;;;;;;;;;5081707;28;20044;-64
2022/04/20 13:41:23;;;;;;;3.78;2.45;;;;;;;;;;5081005;28;20104;-63
2022/04/20 13:43:50;;;;;;;7.47;3.35;;;;;;;;;;5081064;28;20040;-63
2022/04/20 13:46:16;;;;;;;6.65;2.90;;;;;;;;;;5081780;28;20370;-63
2022/04/20 13:48:42;;;;;;;6.28;3.00;;;;;;;;;;5082923;28;20040;-63
2022/04/20 13:51:08;;;;;;;6.55;3.03;;;;;;;;;;5080711;28;20067;-63
2022/04/20 13:53:34;;;;;;;5.40;3.10;;;;;;;;;;5081321;28;20055;-63
2022/04/20 13:56:00;;;;;;;7.30;3.28;;;;;;;;;;5082160;28;20104;-64
2022/04/20 13:58:27;;;;;;;7.45;2.72;;;;;;;;;;5080262;28;20048;-63
2022/04/20 14:00:53;;;;;;;3.50;2.50;;;;;;;;;;5082694;28;20142;-62
2022/04/20 14:03:19;;;;;;;6.80;3.42;;;;;;;;;;5077177;28;20088;-63
2022/04/20 14:05:45;;;;;;;6.90;2.50;;;;;;;;;;5079447;28;20686;-63
2022/04/20 14:08:11;;;;;;;5.38;2.42;;;;;;;;;;5082969;28;20048;-63
2022/04/20 14:10:38;;;;;;;3.72;2.50;;;;;;;;;;5081004;28;20084;-63
2022/04/20 14:13:06;;;;;;;4.80;2.42;;;;;;;;;;5081137;28;20093;-63
2022/04/20 14:15:32;;;;;;;7.47;2.47;;;;;;;;;;5075147;28;20043;-63
2022/04/20 14:17:58;;;;;;;4.38;2.08;;;;;;;;;;5081625;28;20032;-63
2022/04/20 14:20:24;;;;;;;3.45;2.40;;;;;;;;;;5073787;28;20058;-63
2022/04/20 14:22:50;;;;;;;5.78;2.47;;;;;;;;;;5081211;28;20043;-63
2022/04/20 14:33:31;;;;;;;5.80;2.05;;;;;;;;;;5079433;28;20044;-63
2022/04/20 14:35:57;;;;;;;14.30;2.75;;;;;;;;;;5083732;28;20089;-63
2022/04/20 14:38:24;;;;;;;4.32;2.30;;;;;;;;;;5083994;28;20405;-63
2022/04/20 14:40:51;;;;;;;3.85;2.47;;;;;;;;;;5079137;28;20047;-62
2022/04/20 14:43:18;;;;;;;5.53;2.95;;;;;;;;;;5082316;28;20123;-63
2022/04/20 14:45:45;;;;;;;9.13;2.40;;;;;;;;;;5081749;28;20040;-63
2022/04/20 14:48:11;;;;;;;6.40;2.30;;;;;;;;;;5058480;28;20097;-62
2022/04/20 14:50:39;;;;;;;4.63;2.55;;;;;;;;;;5081083;28;20481;-63
2022/04/20 14:53:06;;;;;;;6.13;2.15;;;;;;;;;;5083672;28;20051;-62
2022/04/20 14:55:32;;;;;;;4.05;2.72;;;;;;;;;;5079771;28;20036;-63
2022/04/20 14:57:58;;;;;;;6.00;2.42;;;;;;;;;;5085290;28;20231;-63
2022/04/20 15:00:25;;;;;;;4.35;1.95;;;;;;;;;;5082873;28;20260;-63
2022/04/20 15:02:51;;;;;;;5.57;2.35;;;;;;;;;;5083529;28;20432;-63
2022/04/20 15:05:17;;;;;;;4.57;2.42;;;;;;;;;;5082590;28;20433;-63
2022/04/20 15:07:44;;;;;;;7.97;2.80;;;;;;;;;;5083807;28;20056;-63
2022/04/20 15:10:11;;;;;;;3.97;2.70;;;;;;;;;;5065989;28;20100;-63
2022/04/20 15:12:39;;;;;;;3.88;2.40;;;;;;;;;;5085782;28;20670;-63
2022/04/20 15:15:06;;;;;;;14.68;3.30;;;;;;;;;;5085356;28;20040;-63
2022/04/20 15:17:33;;;;;;;3.40;2.72;;;;;;;;;;5066704;28;20078;-63
2022/04/20 15:19:59;;;;;;;6.00;3.03;;;;;;;;;;5068760;28;20075;-64
2022/04/20 15:22:26;;;;;;;4.80;2.63;;;;;;;;;;5088522;28;20050;-63
2022/04/20 15:24:52;;;;;;;5.03;3.13;;;;;;;;;;5079052;28;20467;-63
2022/04/20 15:27:18;;;;;;;4.28;3.10;;;;;;;;;;5082721;28;20043;-64
2022/04/20 15:29:45;;;;;;;4.22;3.20;;;;;;;;;;5086463;28;20340;-63
2022/04/20 15:32:11;;;;;;;7.63;3.75;;;;;;;;;;5087672;28;20047;-64
2022/04/20 15:34:38;;;;;;;6.93;3.97;;;;;;;;;;5088629;28;20036;-63
2022/04/20 15:37:05;;;;;;;7.68;4.25;;;;;;;;;;5090610;28;20722;-64
2022/04/20 15:39:35;;;;;;;7.40;3.67;;;;;;;;;;5089399;28;20055;-63